sensor_id;sensor_type;location;lat;lon;timestamp;P1;durP1;ratioP1;P2;durP2;ratioP2
27833;SDS011;15200;50.570;7.244;2023-04-06T00:00:03;12.10;;;6.33;;
27833;SDS011;15200;50.570;7.244;2023-04-06T00:02:31;14.60;;;6.90;;
27833;SDS011;15200;50.570;7.244;2023-04-06T00:04:58;11.00;;;6.80;;
27833;SDS011;15200;50.570;7.244;2023-04-06T00:07:25;9.87;;;5.73;;
27833;SDS011;15200;50.570;7.244;2023-04-06T00:09:54;11.43;;;6.20;;
27833;SDS011;15200;50.570;7.244;2023-04-06T00:12:21;13.07;;;6.37;;
27833;SDS011;15200;50.570;7.244;2023-04-06T00:14:49;14.67;;;7.60;;
27833;SDS011;15200;50.570;7.244;2023-04-06T00:17:16;8.70;;;5.77;;
27833;SDS011;15200;50.570;7.244;2023-04-06T00:19:44;9.33;;;6.37;;
27833;SDS011;15200;50.570;7.244;2023-04-06T00:22:11;11.53;;;6.13;;
27833;SDS011;15200;50.570;7.244;2023-04-06T00:24:38;11.13;;;6.47;;
27833;SDS011;15200;50.570;7.244;2023-04-06T00:27:06;15.37;;;6.47;;
27833;SDS011;15200;50.570;7.244;2023-04-06T00:29:33;9.87;;;6.37;;
27833;SDS011;15200;50.570;7.244;2023-04-06T00:32:01;13.67;;;5.87;;
27833;SDS011;15200;50.570;7.244;2023-04-06T00:34:28;8.27;;;5.70;;
27833;SDS011;15200;50.570;7.244;2023-04-06T00:36:56;8.20;;;5.97;;
27833;SDS011;15200;50.570;7.244;2023-04-06T00:39:23;14.00;;;6.27;;
27833;SDS011;15200;50.570;7.244;2023-04-06T00:41:51;8.47;;;5.90;;
27833;SDS011;15200;50.570;7.244;2023-04-06T00:44:19;13.40;;;6.20;;
27833;SDS011;15200;50.570;7.244;2023-04-06T00:46:47;12.53;;;6.57;;
27833;SDS011;15200;50.570;7.244;2023-04-06T00:49:14;9.03;;;6.07;;
27833;SDS011;15200;50.570;7.244;2023-04-06T00:51:41;11.70;;;6.40;;
27833;SDS011;15200;50.570;7.244;2023-04-06T00:54:09;9.50;;;5.83;;
27833;SDS011;15200;50.570;7.244;2023-04-06T00:56:36;9.87;;;6.10;;
27833;SDS011;15200;50.570;7.244;2023-04-06T00:59:03;10.40;;;6.60;;
27833;SDS011;15200;50.570;7.244;2023-04-06T01:01:30;10.83;;;6.50;;
27833;SDS011;15200;50.570;7.244;2023-04-06T01:03:58;10.03;;;6.40;;
27833;SDS011;15200;50.570;7.244;2023-04-06T01:09:14;8.73;;;6.13;;
27833;SDS011;15200;50.570;7.244;2023-04-06T01:11:41;11.13;;;6.23;;
27833;SDS011;15200;50.570;7.244;2023-04-06T01:14:08;11.63;;;5.87;;
27833;SDS011;15200;50.570;7.244;2023-04-06T01:16:36;10.20;;;6.50;;
27833;SDS011;15200;50.570;7.244;2023-04-06T01:19:09;9.60;;;6.67;;
27833;SDS011;15200;50.570;7.244;2023-04-06T01:21:37;9.87;;;6.47;;
27833;SDS011;15200;50.570;7.244;2023-04-06T01:24:05;11.73;;;6.23;;
27833;SDS011;15200;50.570;7.244;2023-04-06T01:26:33;10.53;;;6.60;;
27833;SDS011;15200;50.570;7.244;2023-04-06T01:29:01;10.77;;;6.70;;
27833;SDS011;15200;50.570;7.244;2023-04-06T01:31:28;10.13;;;6.23;;
27833;SDS011;15200;50.570;7.244;2023-04-06T01:33:56;9.73;;;6.87;;
27833;SDS011;15200;50.570;7.244;2023-04-06T01:36:23;10.13;;;5.90;;
27833;SDS011;15200;50.570;7.244;2023-04-06T01:38:51;9.03;;;6.20;;
27833;SDS011;15200;50.570;7.244;2023-04-06T01:41:18;11.57;;;6.37;;
27833;SDS011;15200;50.570;7.244;2023-04-06T01:43:47;12.70;;;6.77;;
27833;SDS011;15200;50.570;7.244;2023-04-06T01:46:15;7.40;;;5.40;;
27833;SDS011;15200;50.570;7.244;2023-04-06T01:48:42;10.63;;;6.90;;
27833;SDS011;15200;50.570;7.244;2023-04-06T01:51:10;12.03;;;6.47;;
27833;SDS011;15200;50.570;7.244;2023-04-06T01:53:37;9.57;;;6.37;;
27833;SDS011;15200;50.570;7.244;2023-04-06T01:56:05;11.17;;;6.80;;
27833;SDS011;15200;50.570;7.244;2023-04-06T01:58:32;9.23;;;6.07;;
27833;SDS011;15200;50.570;7.244;2023-04-06T02:00:59;13.60;;;7.13;;
27833;SDS011;15200;50.570;7.244;2023-04-06T02:03:27;15.23;;;7.17;;
27833;SDS011;15200;50.570;7.244;2023-04-06T02:05:54;14.07;;;7.50;;
27833;SDS011;15200;50.570;7.244;2023-04-06T02:08:21;11.67;;;6.40;;
27833;SDS011;15200;50.570;7.244;2023-04-06T02:10:49;11.73;;;5.87;;
27833;SDS011;15200;50.570;7.244;2023-04-06T02:13:16;10.80;;;6.43;;
27833;SDS011;15200;50.570;7.244;2023-04-06T02:15:43;12.23;;;6.97;;
27833;SDS011;15200;50.570;7.244;2023-04-06T02:18:11;13.90;;;6.40;;
27833;SDS011;15200;50.570;7.244;2023-04-06T02:20:38;10.37;;;6.57;;
27833;SDS011;15200;50.570;7.244;2023-04-06T02:23:05;9.10;;;6.10;;
27833;SDS011;15200;50.570;7.244;2023-04-06T02:25:33;13.53;;;6.63;;
27833;SDS011;15200;50.570;7.244;2023-04-06T02:28:01;9.20;;;6.43;;
27833;SDS011;15200;50.570;7.244;2023-04-06T02:30:28;10.90;;;6.80;;
27833;SDS011;15200;50.570;7.244;2023-04-06T02:32:55;11.07;;;6.63;;
27833;SDS011;15200;50.570;7.244;2023-04-06T02:35:24;12.30;;;7.37;;
27833;SDS011;15200;50.570;7.244;2023-04-06T02:37:51;16.47;;;6.73;;
27833;SDS011;15200;50.570;7.244;2023-04-06T02:40:19;10.93;;;6.97;;
27833;SDS011;15200;50.570;7.244;2023-04-06T02:42:46;14.80;;;6.50;;
27833;SDS011;15200;50.570;7.244;2023-04-06T02:45:14;10.40;;;7.20;;
27833;SDS011;15200;50.570;7.244;2023-04-06T02:47:41;11.47;;;7.07;;
27833;SDS011;15200;50.570;7.244;2023-04-06T02:50:09;9.97;;;6.67;;
27833;SDS011;15200;50.570;7.244;2023-04-06T02:52:36;10.20;;;6.47;;
27833;SDS011;15200;50.570;7.244;2023-04-06T02:55:03;8.83;;;6.23;;
27833;SDS011;15200;50.570;7.244;2023-04-06T02:57:33;12.10;;;7.57;;
27833;SDS011;15200;50.570;7.244;2023-04-06T03:00:00;11.13;;;6.97;;
27833;SDS011;15200;50.570;7.244;2023-04-06T03:02:27;16.23;;;7.40;;
27833;SDS011;15200;50.570;7.244;2023-04-06T03:04:55;8.70;;;6.73;;
27833;SDS011;15200;50.570;7.244;2023-04-06T03:07:22;10.63;;;7.03;;
27833;SDS011;15200;50.570;7.244;2023-04-06T03:09:50;9.80;;;6.60;;
27833;SDS011;15200;50.570;7.244;2023-04-06T03:12:17;12.03;;;7.20;;
27833;SDS011;15200;50.570;7.244;2023-04-06T03:14:45;11.20;;;7.30;;
27833;SDS011;15200;50.570;7.244;2023-04-06T03:17:12;10.63;;;6.93;;
27833;SDS011;15200;50.570;7.244;2023-04-06T03:19:39;12.73;;;6.97;;
27833;SDS011;15200;50.570;7.244;2023-04-06T03:22:07;11.90;;;7.40;;
27833;SDS011;15200;50.570;7.244;2023-04-06T03:24:35;15.63;;;7.20;;
27833;SDS011;15200;50.570;7.244;2023-04-06T03:27:02;12.17;;;6.80;;
27833;SDS011;15200;50.570;7.244;2023-04-06T03:29:29;13.53;;;7.00;;
27833;SDS011;15200;50.570;7.244;2023-04-06T03:31:57;13.57;;;7.47;;
27833;SDS011;15200;50.570;7.244;2023-04-06T03:34:24;13.53;;;7.47;;
27833;SDS011;15200;50.570;7.244;2023-04-06T03:36:52;14.00;;;7.60;;
27833;SDS011;15200;50.570;7.244;2023-04-06T03:39:19;10.57;;;7.03;;
27833;SDS011;15200;50.570;7.244;2023-04-06T03:41:46;12.23;;;7.80;;
27833;SDS011;15200;50.570;7.244;2023-04-06T03:44:14;13.13;;;7.40;;
27833;SDS011;15200;50.570;7.244;2023-04-06T03:46:41;12.53;;;7.57;;
27833;SDS011;15200;50.570;7.244;2023-04-06T03:49:08;17.03;;;7.77;;
27833;SDS011;15200;50.570;7.244;2023-04-06T03:51:36;12.73;;;7.70;;
27833;SDS011;15200;50.570;7.244;2023-04-06T03:54:03;13.83;;;7.43;;
27833;SDS011;15200;50.570;7.244;2023-04-06T03:56:31;14.03;;;7.57;;
27833;SDS011;15200;50.570;7.244;2023-04-06T03:58:58;16.40;;;8.80;;
27833;SDS011;15200;50.570;7.244;2023-04-06T04:01:26;16.60;;;8.23;;
27833;SDS011;15200;50.570;7.244;2023-04-06T04:03:53;13.93;;;7.80;;
27833;SDS011;15200;50.570;7.244;2023-04-06T04:06:20;20.57;;;7.93;;
27833;SDS011;15200;50.570;7.244;2023-04-06T04:08:48;16.53;;;8.47;;
27833;SDS011;15200;50.570;7.244;2023-04-06T04:11:18;16.40;;;8.93;;
27833;SDS011;15200;50.570;7.244;2023-04-06T04:13:46;13.23;;;8.23;;
27833;SDS011;15200;50.570;7.244;2023-04-06T04:16:13;15.77;;;8.23;;
27833;SDS011;15200;50.570;7.244;2023-04-06T04:18:40;16.20;;;8.47;;
27833;SDS011;15200;50.570;7.244;2023-04-06T04:21:09;22.00;;;8.63;;
27833;SDS011;15200;50.570;7.244;2023-04-06T04:23:37;19.00;;;8.00;;
27833;SDS011;15200;50.570;7.244;2023-04-06T04:26:04;13.33;;;7.90;;
27833;SDS011;15200;50.570;7.244;2023-04-06T04:28:31;21.33;;;8.40;;
27833;SDS011;15200;50.570;7.244;2023-04-06T04:30:59;17.47;;;7.80;;
27833;SDS011;15200;50.570;7.244;2023-04-06T04:33:26;17.50;;;7.57;;
27833;SDS011;15200;50.570;7.244;2023-04-06T04:35:53;17.33;;;8.30;;
27833;SDS011;15200;50.570;7.244;2023-04-06T04:38:21;14.03;;;7.63;;
27833;SDS011;15200;50.570;7.244;2023-04-06T04:40:48;14.20;;;7.80;;
27833;SDS011;15200;50.570;7.244;2023-04-06T04:43:15;16.37;;;8.27;;
27833;SDS011;15200;50.570;7.244;2023-04-06T04:45:43;12.80;;;7.80;;
27833;SDS011;15200;50.570;7.244;2023-04-06T04:48:10;20.77;;;7.77;;
27833;SDS011;15200;50.570;7.244;2023-04-06T04:50:37;16.70;;;8.40;;
27833;SDS011;15200;50.570;7.244;2023-04-06T04:53:05;18.70;;;8.53;;
27833;SDS011;15200;50.570;7.244;2023-04-06T04:55:32;15.37;;;7.87;;
27833;SDS011;15200;50.570;7.244;2023-04-06T04:57:59;17.73;;;8.37;;
27833;SDS011;15200;50.570;7.244;2023-04-06T05:00:27;17.87;;;8.43;;
27833;SDS011;15200;50.570;7.244;2023-04-06T05:02:54;14.03;;;9.43;;
27833;SDS011;15200;50.570;7.244;2023-04-06T05:05:21;18.73;;;10.07;;
27833;SDS011;15200;50.570;7.244;2023-04-06T05:07:49;16.77;;;9.23;;
27833;SDS011;15200;50.570;7.244;2023-04-06T05:10:16;22.03;;;11.47;;
27833;SDS011;15200;50.570;7.244;2023-04-06T05:12:44;22.27;;;10.73;;
27833;SDS011;15200;50.570;7.244;2023-04-06T05:15:11;21.03;;;11.60;;
27833;SDS011;15200;50.570;7.244;2023-04-06T05:17:38;21.37;;;10.67;;
27833;SDS011;15200;50.570;7.244;2023-04-06T05:20:06;22.27;;;10.80;;
27833;SDS011;15200;50.570;7.244;2023-04-06T05:22:33;17.73;;;10.60;;
27833;SDS011;15200;50.570;7.244;2023-04-06T05:25:01;19.00;;;10.50;;
27833;SDS011;15200;50.570;7.244;2023-04-06T05:27:28;20.80;;;10.67;;
27833;SDS011;15200;50.570;7.244;2023-04-06T05:29:57;27.27;;;10.67;;
27833;SDS011;15200;50.570;7.244;2023-04-06T05:32:24;21.83;;;10.50;;
27833;SDS011;15200;50.570;7.244;2023-04-06T05:34:52;15.40;;;9.30;;
27833;SDS011;15200;50.570;7.244;2023-04-06T05:37:19;17.77;;;9.77;;
27833;SDS011;15200;50.570;7.244;2023-04-06T05:39:46;17.63;;;8.67;;
27833;SDS011;15200;50.570;7.244;2023-04-06T05:42:13;18.10;;;8.30;;
27833;SDS011;15200;50.570;7.244;2023-04-06T05:44:41;25.33;;;9.10;;
27833;SDS011;15200;50.570;7.244;2023-04-06T05:47:09;11.30;;;7.93;;
27833;SDS011;15200;50.570;7.244;2023-04-06T05:49:36;20.20;;;9.03;;
27833;SDS011;15200;50.570;7.244;2023-04-06T05:52:03;16.07;;;9.97;;
27833;SDS011;15200;50.570;7.244;2023-04-06T05:54:31;14.47;;;8.13;;
27833;SDS011;15200;50.570;7.244;2023-04-06T05:56:58;15.30;;;7.90;;
27833;SDS011;15200;50.570;7.244;2023-04-06T05:59:25;17.07;;;8.13;;
27833;SDS011;15200;50.570;7.244;2023-04-06T06:01:53;16.13;;;8.50;;
27833;SDS011;15200;50.570;7.244;2023-04-06T06:04:20;14.20;;;8.40;;
27833;SDS011;15200;50.570;7.244;2023-04-06T06:06:47;11.30;;;8.00;;
27833;SDS011;15200;50.570;7.244;2023-04-06T06:09:15;15.57;;;8.60;;
27833;SDS011;15200;50.570;7.244;2023-04-06T06:11:42;14.27;;;8.67;;
27833;SDS011;15200;50.570;7.244;2023-04-06T06:14:09;16.47;;;8.90;;
27833;SDS011;15200;50.570;7.244;2023-04-06T06:16:37;18.33;;;8.67;;
27833;SDS011;15200;50.570;7.244;2023-04-06T06:19:04;12.00;;;7.33;;
27833;SDS011;15200;50.570;7.244;2023-04-06T06:21:31;14.40;;;8.27;;
27833;SDS011;15200;50.570;7.244;2023-04-06T06:23:59;15.77;;;8.83;;
27833;SDS011;15200;50.570;7.244;2023-04-06T06:26:26;15.57;;;8.30;;
27833;SDS011;15200;50.570;7.244;2023-04-06T06:28:53;16.03;;;8.13;;
27833;SDS011;15200;50.570;7.244;2023-04-06T06:31:21;13.13;;;8.47;;
27833;SDS011;15200;50.570;7.244;2023-04-06T06:33:49;13.63;;;8.43;;
27833;SDS011;15200;50.570;7.244;2023-04-06T06:36:18;12.37;;;7.83;;
27833;SDS011;15200;50.570;7.244;2023-04-06T06:38:46;15.30;;;8.47;;
27833;SDS011;15200;50.570;7.244;2023-04-06T06:41:13;16.23;;;8.27;;
27833;SDS011;15200;50.570;7.244;2023-04-06T06:43:40;13.33;;;8.37;;
27833;SDS011;15200;50.570;7.244;2023-04-06T06:46:08;11.20;;;8.10;;
27833;SDS011;15200;50.570;7.244;2023-04-06T06:48:35;12.70;;;7.23;;
27833;SDS011;15200;50.570;7.244;2023-04-06T06:51:03;10.40;;;7.70;;
27833;SDS011;15200;50.570;7.244;2023-04-06T06:53:30;13.90;;;8.07;;
27833;SDS011;15200;50.570;7.244;2023-04-06T06:55:57;15.47;;;7.40;;
27833;SDS011;15200;50.570;7.244;2023-04-06T06:58:25;15.23;;;7.93;;
27833;SDS011;15200;50.570;7.244;2023-04-06T07:00:56;9.77;;;6.13;;
27833;SDS011;15200;50.570;7.244;2023-04-06T07:03:23;15.80;;;7.40;;
27833;SDS011;15200;50.570;7.244;2023-04-06T07:05:51;13.17;;;7.03;;
27833;SDS011;15200;50.570;7.244;2023-04-06T07:08:22;10.27;;;6.43;;
27833;SDS011;15200;50.570;7.244;2023-04-06T07:10:50;11.17;;;6.67;;
27833;SDS011;15200;50.570;7.244;2023-04-06T07:13:19;10.07;;;7.20;;
27833;SDS011;15200;50.570;7.244;2023-04-06T07:15:50;12.63;;;7.30;;
27833;SDS011;15200;50.570;7.244;2023-04-06T07:18:18;13.23;;;6.73;;
27833;SDS011;15200;50.570;7.244;2023-04-06T07:20:45;12.07;;;6.73;;
27833;SDS011;15200;50.570;7.244;2023-04-06T07:23:12;13.00;;;6.00;;
27833;SDS011;15200;50.570;7.244;2023-04-06T07:25:40;14.73;;;7.07;;
27833;SDS011;15200;50.570;7.244;2023-04-06T07:28:07;9.63;;;6.00;;
27833;SDS011;15200;50.570;7.244;2023-04-06T07:30:34;9.17;;;6.63;;
27833;SDS011;15200;50.570;7.244;2023-04-06T07:33:02;9.90;;;6.03;;
27833;SDS011;15200;50.570;7.244;2023-04-06T07:35:29;10.83;;;6.60;;
27833;SDS011;15200;50.570;7.244;2023-04-06T07:37:56;11.57;;;6.70;;
27833;SDS011;15200;50.570;7.244;2023-04-06T07:40:24;10.87;;;6.07;;
27833;SDS011;15200;50.570;7.244;2023-04-06T07:42:52;13.93;;;6.73;;
27833;SDS011;15200;50.570;7.244;2023-04-06T07:45:19;12.30;;;6.53;;
27833;SDS011;15200;50.570;7.244;2023-04-06T07:47:47;10.73;;;6.40;;
27833;SDS011;15200;50.570;7.244;2023-04-06T07:50:15;17.93;;;7.00;;
27833;SDS011;15200;50.570;7.244;2023-04-06T07:52:42;11.00;;;6.73;;
27833;SDS011;15200;50.570;7.244;2023-04-06T07:55:09;12.77;;;6.63;;
27833;SDS011;15200;50.570;7.244;2023-04-06T07:57:37;10.57;;;6.47;;
27833;SDS011;15200;50.570;7.244;2023-04-06T08:00:04;10.50;;;5.97;;
27833;SDS011;15200;50.570;7.244;2023-04-06T08:02:32;14.83;;;6.50;;
27833;SDS011;15200;50.570;7.244;2023-04-06T08:04:59;14.00;;;7.00;;
27833;SDS011;15200;50.570;7.244;2023-04-06T08:07:27;14.50;;;6.73;;
27833;SDS011;15200;50.570;7.244;2023-04-06T08:09:54;11.73;;;6.30;;
27833;SDS011;15200;50.570;7.244;2023-04-06T08:12:21;11.45;;;7.00;;
27833;SDS011;15200;50.570;7.244;2023-04-06T08:14:49;11.63;;;6.10;;
27833;SDS011;15200;50.570;7.244;2023-04-06T08:17:16;9.77;;;6.57;;
27833;SDS011;15200;50.570;7.244;2023-04-06T08:19:44;16.47;;;7.10;;
27833;SDS011;15200;50.570;7.244;2023-04-06T08:22:11;15.73;;;7.10;;
27833;SDS011;15200;50.570;7.244;2023-04-06T08:24:38;12.93;;;6.42;;
27833;SDS011;15200;50.570;7.244;2023-04-06T08:27:06;19.87;;;7.33;;
27833;SDS011;15200;50.570;7.244;2023-04-06T08:29:33;12.30;;;6.80;;
27833;SDS011;15200;50.570;7.244;2023-04-06T08:32:01;9.85;;;6.50;;
27833;SDS011;15200;50.570;7.244;2023-04-06T08:34:30;11.68;;;7.00;;
27833;SDS011;15200;50.570;7.244;2023-04-06T08:36:57;14.13;;;6.90;;
27833;SDS011;15200;50.570;7.244;2023-04-06T08:39:24;14.75;;;6.70;;
27833;SDS011;15200;50.570;7.244;2023-04-06T08:41:53;10.82;;;7.60;;
27833;SDS011;15200;50.570;7.244;2023-04-06T08:44:22;13.80;;;7.07;;
27833;SDS011;15200;50.570;7.244;2023-04-06T08:46:50;12.07;;;6.55;;
27833;SDS011;15200;50.570;7.244;2023-04-06T08:49:18;13.95;;;7.92;;
27833;SDS011;15200;50.570;7.244;2023-04-06T08:51:46;17.87;;;7.30;;
27833;SDS011;15200;50.570;7.244;2023-04-06T08:54:14;11.63;;;7.08;;
27833;SDS011;15200;50.570;7.244;2023-04-06T08:56:41;13.85;;;6.85;;
27833;SDS011;15200;50.570;7.244;2023-04-06T08:59:09;13.28;;;7.30;;
27833;SDS011;15200;50.570;7.244;2023-04-06T09:01:38;12.88;;;7.28;;
27833;SDS011;15200;50.570;7.244;2023-04-06T09:04:07;18.48;;;6.60;;
27833;SDS011;15200;50.570;7.244;2023-04-06T09:06:37;16.50;;;7.17;;
27833;SDS011;15200;50.570;7.244;2023-04-06T09:09:04;14.83;;;7.20;;
27833;SDS011;15200;50.570;7.244;2023-04-06T09:12:33;10.95;;;7.22;;
27833;SDS011;15200;50.570;7.244;2023-04-06T09:14:10;10.90;;;7.10;;
27833;SDS011;15200;50.570;7.244;2023-04-06T09:16:41;12.73;;;7.33;;
27833;SDS011;15200;50.570;7.244;2023-04-06T09:19:09;14.07;;;7.33;;
27833;SDS011;15200;50.570;7.244;2023-04-06T09:21:36;16.23;;;7.30;;
27833;SDS011;15200;50.570;7.244;2023-04-06T09:24:04;12.63;;;8.30;;
27833;SDS011;15200;50.570;7.244;2023-04-06T09:26:31;12.33;;;7.80;;
27833;SDS011;15200;50.570;7.244;2023-04-06T09:29:00;12.82;;;7.50;;
27833;SDS011;15200;50.570;7.244;2023-04-06T09:31:29;16.25;;;7.80;;
27833;SDS011;15200;50.570;7.244;2023-04-06T09:33:56;14.85;;;7.87;;
27833;SDS011;15200;50.570;7.244;2023-04-06T09:36:35;19.67;;;7.62;;
27833;SDS011;15200;50.570;7.244;2023-04-06T09:38:59;15.65;;;7.65;;
27833;SDS011;15200;50.570;7.244;2023-04-06T09:41:28;16.93;;;7.95;;
27833;SDS011;15200;50.570;7.244;2023-04-06T09:44:06;16.23;;;7.87;;
27833;SDS011;15200;50.570;7.244;2023-04-06T09:46:40;13.70;;;7.20;;
27833;SDS011;15200;50.570;7.244;2023-04-06T09:49:08;12.20;;;7.03;;
27833;SDS011;15200;50.570;7.244;2023-04-06T09:51:37;10.90;;;6.00;;
27833;SDS011;15200;50.570;7.244;2023-04-06T09:54:04;14.95;;;7.55;;
27833;SDS011;15200;50.570;7.244;2023-04-06T09:56:45;10.70;;;7.35;;
27833;SDS011;15200;50.570;7.244;2023-04-06T09:59:14;15.43;;;7.17;;
27833;SDS011;15200;50.570;7.244;2023-04-06T10:01:42;10.88;;;6.70;;
27833;SDS011;15200;50.570;7.244;2023-04-06T10:04:13;12.13;;;6.62;;
27833;SDS011;15200;50.570;7.244;2023-04-06T10:06:38;13.25;;;8.18;;
27833;SDS011;15200;50.570;7.244;2023-04-06T10:09:06;12.70;;;7.05;;
27833;SDS011;15200;50.570;7.244;2023-04-06T10:11:34;18.48;;;7.97;;
27833;SDS011;15200;50.570;7.244;2023-04-06T10:14:02;10.68;;;7.25;;
27833;SDS011;15200;50.570;7.244;2023-04-06T10:16:29;23.27;;;8.03;;
27833;SDS011;15200;50.570;7.244;2023-04-06T10:19:00;13.50;;;7.22;;
27833;SDS011;15200;50.570;7.244;2023-04-06T10:21:26;12.45;;;6.50;;
27833;SDS011;15200;50.570;7.244;2023-04-06T10:23:58;13.00;;;6.80;;
27833;SDS011;15200;50.570;7.244;2023-04-06T10:26:23;18.10;;;7.33;;
27833;SDS011;15200;50.570;7.244;2023-04-06T10:28:51;12.45;;;6.80;;
27833;SDS011;15200;50.570;7.244;2023-04-06T10:31:25;13.45;;;6.62;;
27833;SDS011;15200;50.570;7.244;2023-04-06T10:33:54;13.53;;;6.45;;
27833;SDS011;15200;50.570;7.244;2023-04-06T10:36:22;8.80;;;6.15;;
27833;SDS011;15200;50.570;7.244;2023-04-06T10:39:00;10.38;;;5.33;;
27833;SDS011;15200;50.570;7.244;2023-04-06T10:41:20;11.65;;;6.58;;
27833;SDS011;15200;50.570;7.244;2023-04-06T10:43:54;11.40;;;6.30;;
27833;SDS011;15200;50.570;7.244;2023-04-06T10:46:16;11.18;;;6.17;;
27833;SDS011;15200;50.570;7.244;2023-04-06T10:48:45;11.20;;;7.55;;
27833;SDS011;15200;50.570;7.244;2023-04-06T10:51:13;12.07;;;7.58;;
27833;SDS011;15200;50.570;7.244;2023-04-06T10:53:41;9.58;;;6.45;;
27833;SDS011;15200;50.570;7.244;2023-04-06T10:56:10;9.75;;;6.33;;
27833;SDS011;15200;50.570;7.244;2023-04-06T10:58:44;11.22;;;6.08;;
27833;SDS011;15200;50.570;7.244;2023-04-06T11:01:13;10.55;;;5.47;;
27833;SDS011;15200;50.570;7.244;2023-04-06T11:03:46;8.95;;;5.87;;
27833;SDS011;15200;50.570;7.244;2023-04-06T11:06:12;10.15;;;6.35;;
27833;SDS011;15200;50.570;7.244;2023-04-06T11:08:39;12.23;;;5.78;;
27833;SDS011;15200;50.570;7.244;2023-04-06T11:11:07;8.05;;;5.03;;
27833;SDS011;15200;50.570;7.244;2023-04-06T11:13:38;16.93;;;6.75;;
27833;SDS011;15200;50.570;7.244;2023-04-06T11:16:06;11.48;;;6.05;;
27833;SDS011;15200;50.570;7.244;2023-04-06T11:18:33;10.98;;;6.20;;
27833;SDS011;15200;50.570;7.244;2023-04-06T11:21:01;10.15;;;5.90;;
27833;SDS011;15200;50.570;7.244;2023-04-06T11:23:28;11.55;;;6.05;;
27833;SDS011;15200;50.570;7.244;2023-04-06T11:25:55;11.55;;;6.15;;
27833;SDS011;15200;50.570;7.244;2023-04-06T11:28:23;8.95;;;5.42;;
27833;SDS011;15200;50.570;7.244;2023-04-06T11:30:50;9.10;;;5.95;;
27833;SDS011;15200;50.570;7.244;2023-04-06T11:33:21;9.53;;;5.65;;
27833;SDS011;15200;50.570;7.244;2023-04-06T11:35:51;10.48;;;5.47;;
27833;SDS011;15200;50.570;7.244;2023-04-06T11:38:18;8.03;;;5.10;;
27833;SDS011;15200;50.570;7.244;2023-04-06T11:40:47;11.73;;;5.90;;
27833;SDS011;15200;50.570;7.244;2023-04-06T11:43:17;14.47;;;7.20;;
27833;SDS011;15200;50.570;7.244;2023-04-06T11:45:44;9.48;;;5.45;;
27833;SDS011;15200;50.570;7.244;2023-04-06T11:48:18;10.15;;;6.40;;
27833;SDS011;15200;50.570;7.244;2023-04-06T11:50:46;10.30;;;6.43;;
27833;SDS011;15200;50.570;7.244;2023-04-06T11:53:14;11.43;;;6.90;;
27833;SDS011;15200;50.570;7.244;2023-04-06T11:55:42;9.58;;;6.50;;
27833;SDS011;15200;50.570;7.244;2023-04-06T11:58:11;9.13;;;5.60;;
27833;SDS011;15200;50.570;7.244;2023-04-06T12:00:38;13.80;;;5.47;;
27833;SDS011;15200;50.570;7.244;2023-04-06T12:03:07;12.90;;;6.78;;
27833;SDS011;15200;50.570;7.244;2023-04-06T12:05:34;9.25;;;5.22;;
27833;SDS011;15200;50.570;7.244;2023-04-06T12:08:02;10.03;;;5.87;;
27833;SDS011;15200;50.570;7.244;2023-04-06T12:10:29;10.65;;;6.33;;
27833;SDS011;15200;50.570;7.244;2023-04-06T12:12:56;10.82;;;5.97;;
27833;SDS011;15200;50.570;7.244;2023-04-06T12:15:24;11.20;;;6.60;;
27833;SDS011;15200;50.570;7.244;2023-04-06T12:17:51;13.00;;;5.85;;
27833;SDS011;15200;50.570;7.244;2023-04-06T12:20:18;11.70;;;6.10;;
27833;SDS011;15200;50.570;7.244;2023-04-06T12:22:46;13.08;;;6.17;;
27833;SDS011;15200;50.570;7.244;2023-04-06T12:25:13;14.13;;;6.83;;
27833;SDS011;15200;50.570;7.244;2023-04-06T12:27:41;11.85;;;6.05;;
27833;SDS011;15200;50.570;7.244;2023-04-06T12:30:08;10.28;;;6.10;;
27833;SDS011;15200;50.570;7.244;2023-04-06T12:32:35;10.60;;;6.25;;
27833;SDS011;15200;50.570;7.244;2023-04-06T12:35:03;10.30;;;6.12;;
27833;SDS011;15200;50.570;7.244;2023-04-06T12:37:30;10.28;;;6.35;;
27833;SDS011;15200;50.570;7.244;2023-04-06T12:39:57;11.33;;;5.08;;
27833;SDS011;15200;50.570;7.244;2023-04-06T12:42:25;10.95;;;5.85;;
27833;SDS011;15200;50.570;7.244;2023-04-06T12:44:52;8.55;;;5.53;;
27833;SDS011;15200;50.570;7.244;2023-04-06T12:47:20;8.15;;;5.37;;
27833;SDS011;15200;50.570;7.244;2023-04-06T12:49:47;8.63;;;5.37;;
27833;SDS011;15200;50.570;7.244;2023-04-06T12:52:14;10.72;;;5.33;;
27833;SDS011;15200;50.570;7.244;2023-04-06T12:54:41;8.95;;;5.72;;
27833;SDS011;15200;50.570;7.244;2023-04-06T12:57:09;8.43;;;5.75;;
27833;SDS011;15200;50.570;7.244;2023-04-06T12:59:36;8.38;;;4.62;;
27833;SDS011;15200;50.570;7.244;2023-04-06T13:02:04;7.12;;;5.15;;
27833;SDS011;15200;50.570;7.244;2023-04-06T13:04:32;10.15;;;5.90;;
27833;SDS011;15200;50.570;7.244;2023-04-06T13:06:59;7.87;;;4.80;;
27833;SDS011;15200;50.570;7.244;2023-04-06T13:09:26;11.50;;;5.42;;
27833;SDS011;15200;50.570;7.244;2023-04-06T13:11:53;6.97;;;4.83;;
27833;SDS011;15200;50.570;7.244;2023-04-06T13:14:21;8.98;;;4.92;;
27833;SDS011;15200;50.570;7.244;2023-04-06T13:16:50;7.87;;;4.75;;
27833;SDS011;15200;50.570;7.244;2023-04-06T13:19:18;6.37;;;4.28;;
27833;SDS011;15200;50.570;7.244;2023-04-06T13:21:47;11.95;;;4.65;;
27833;SDS011;15200;50.570;7.244;2023-04-06T13:24:14;6.12;;;4.58;;
27833;SDS011;15200;50.570;7.244;2023-04-06T13:26:42;5.65;;;4.10;;
27833;SDS011;15200;50.570;7.244;2023-04-06T13:29:09;6.33;;;3.72;;
27833;SDS011;15200;50.570;7.244;2023-04-06T13:31:36;5.47;;;3.17;;
27833;SDS011;15200;50.570;7.244;2023-04-06T13:34:05;6.42;;;3.50;;
27833;SDS011;15200;50.570;7.244;2023-04-06T13:36:32;4.12;;;2.85;;
27833;SDS011;15200;50.570;7.244;2023-04-06T13:38:59;5.03;;;3.02;;
27833;SDS011;15200;50.570;7.244;2023-04-06T13:41:26;3.85;;;2.60;;
27833;SDS011;15200;50.570;7.244;2023-04-06T13:43:54;4.90;;;2.70;;
27833;SDS011;15200;50.570;7.244;2023-04-06T13:46:21;4.80;;;3.20;;
27833;SDS011;15200;50.570;7.244;2023-04-06T13:48:50;5.35;;;3.62;;
27833;SDS011;15200;50.570;7.244;2023-04-06T13:51:17;4.95;;;3.45;;
27833;SDS011;15200;50.570;7.244;2023-04-06T13:53:44;7.22;;;4.17;;
27833;SDS011;15200;50.570;7.244;2023-04-06T13:56:12;7.10;;;4.10;;
27833;SDS011;15200;50.570;7.244;2023-04-06T13:58:39;7.35;;;4.78;;
27833;SDS011;15200;50.570;7.244;2023-04-06T14:01:07;10.53;;;4.58;;
27833;SDS011;15200;50.570;7.244;2023-04-06T14:03:35;8.28;;;3.70;;
27833;SDS011;15200;50.570;7.244;2023-04-06T14:06:12;6.08;;;3.42;;
27833;SDS011;15200;50.570;7.244;2023-04-06T14:08:39;5.65;;;3.70;;
27833;SDS011;15200;50.570;7.244;2023-04-06T14:11:10;9.78;;;3.52;;
27833;SDS011;15200;50.570;7.244;2023-04-06T14:13:35;5.42;;;3.70;;
27833;SDS011;15200;50.570;7.244;2023-04-06T14:16:03;5.28;;;3.87;;
27833;SDS011;15200;50.570;7.244;2023-04-06T14:18:31;6.20;;;3.70;;
27833;SDS011;15200;50.570;7.244;2023-04-06T14:21:00;5.85;;;4.03;;
27833;SDS011;15200;50.570;7.244;2023-04-06T14:23:27;7.70;;;4.25;;
27833;SDS011;15200;50.570;7.244;2023-04-06T14:26:04;8.20;;;5.10;;
27833;SDS011;15200;50.570;7.244;2023-04-06T14:28:32;7.60;;;5.05;;
27833;SDS011;15200;50.570;7.244;2023-04-06T14:31:00;10.08;;;5.22;;
27833;SDS011;15200;50.570;7.244;2023-04-06T14:33:29;11.30;;;4.62;;
27833;SDS011;15200;50.570;7.244;2023-04-06T14:35:57;6.87;;;4.37;;
27833;SDS011;15200;50.570;7.244;2023-04-06T14:38:25;5.65;;;3.85;;
27833;SDS011;15200;50.570;7.244;2023-04-06T14:40:52;7.67;;;4.40;;
27833;SDS011;15200;50.570;7.244;2023-04-06T14:43:21;7.92;;;5.10;;